Time;durP1;ratioP1;P1;durP2;ratioP2;P2;SDS_P1;SDS_P2;PMS_P1;PMS_P2;Temp;Humidity;BMP_temperature;BMP_pressure;BME280_temperature;BME280_humidity;BME280_pressure;Samples;Min_cycle;Max_cycle;Signal;HPM_P1;HPM_P2
2022/05/28 00:00:29;;;;;;;8.43;1.95;;;;;;;13.92;57.71;101692.88;5070278;28;20040;-82
2022/05/28 00:02:55;;;;;;;6.57;2.22;;;;;;;13.92;57.56;101696.41;5069311;28;20024;-83
2022/05/28 00:05:20;;;;;;;4.55;1.27;;;;;;;13.89;57.75;101701.84;5070692;28;20479;-83
2022/05/28 00:07:46;;;;;;;9.45;1.80;;;;;;;13.86;57.73;101696.75;5069679;28;20494;-82
2022/05/28 00:10:14;;;;;;;9.02;2.03;;;;;;;13.86;57.48;101696.75;5070039;28;20025;-83
2022/05/28 00:12:40;;;;;;;3.42;1.45;;;;;;;13.86;57.50;101694.97;5070257;28;20107;-82
2022/05/28 00:15:07;;;;;;;5.90;1.85;;;;;;;13.81;57.24;101704.13;5073627;28;20100;-82
2022/05/28 00:17:33;;;;;;;6.07;1.60;;;;;;;13.79;57.61;101701.56;5073997;28;20020;-82
2022/05/28 00:19:58;;;;;;;6.93;1.80;;;;;;;13.80;57.51;101711.19;5075009;28;20094;-83
2022/05/28 00:22:24;;;;;;;4.38;1.55;;;;;;;13.81;57.67;101704.97;5074889;28;20536;-82
2022/05/28 00:24:49;;;;;;;6.78;1.63;;;;;;;13.86;58.07;101700.25;5074672;28;20024;-82
2022/05/28 00:27:15;;;;;;;10.98;2.00;;;;;;;13.82;58.09;101700.50;5074349;28;20029;-82
2022/05/28 00:29:40;;;;;;;8.20;1.88;;;;;;;13.91;58.10;101702.59;5075009;28;20367;-83
2022/05/28 00:32:06;;;;;;;8.50;1.80;;;;;;;13.83;58.37;101703.06;5074920;28;20047;-83
2022/05/28 00:34:31;;;;;;;10.40;1.70;;;;;;;13.78;58.10;101701.66;5074062;28;20040;-82
2022/05/28 00:36:57;;;;;;;6.30;1.77;;;;;;;13.77;57.99;101690.25;5074237;28;20029;-82
2022/05/28 00:39:23;;;;;;;6.05;1.90;;;;;;;13.75;58.09;101686.84;5074536;28;20470;-82
2022/05/28 00:41:49;;;;;;;9.38;1.75;;;;;;;13.64;57.79;101686.66;5073855;28;20410;-83
2022/05/28 00:44:15;;;;;;;4.88;1.50;;;;;;;13.57;57.39;101690.63;5073229;28;20020;-82
2022/05/28 00:46:42;;;;;;;7.65;1.50;;;;;;;13.53;57.88;101689.94;5074942;28;20028;-83
2022/05/28 00:49:22;;;;;;;6.07;1.23;;;;;;;13.57;58.43;101693.25;5075095;28;20161;-82
2022/05/28 00:51:50;;;;;;;4.35;1.40;;;;;;;13.64;58.67;101687.50;5074324;28;20036;-82
2022/05/28 00:54:16;;;;;;;5.43;1.80;;;;;;;13.49;58.64;101678.72;5073798;28;20025;-83
2022/05/28 00:56:41;;;;;;;6.18;1.55;;;;;;;13.44;58.77;101680.78;5073819;28;20023;-83
2022/05/28 00:59:08;;;;;;;5.80;2.22;;;;;;;13.42;58.77;101682.66;5073322;28;20024;-82
2022/05/28 01:01:35;;;;;;;7.38;2.10;;;;;;;13.35;59.26;101683.97;5074175;28;20115;-82
2022/05/28 01:04:28;;;;;;;6.28;1.42;;;;;;;13.41;59.23;101688.88;5074243;28;20103;-82
2022/05/28 01:07:18;;;;;;;6.93;1.98;;;;;;;13.37;58.96;101690.00;5074316;28;20402;-82
2022/05/28 01:09:56;;;;;;;7.68;1.88;;;;;;;13.38;59.84;101686.41;5073644;28;20394;-82
2022/05/28 01:12:42;;;;;;;3.70;1.40;;;;;;;13.14;59.61;101686.03;5074107;28;20123;-82
2022/05/28 01:15:22;;;;;;;4.57;1.40;;;;;;;13.05;60.05;101682.16;5052798;28;20045;-82
2022/05/28 01:17:57;;;;;;;3.97;1.70;;;;;;;13.01;60.10;101683.28;5053950;28;20487;-82
2022/05/28 01:20:48;;;;;;;5.60;1.13;;;;;;;13.03;59.85;101691.97;5054037;28;20098;-82
2022/05/28 01:23:46;;;;;;;7.32;2.03;;;;;;;12.94;59.96;101684.56;5055373;28;20061;-83
2022/05/28 01:26:30;;;;;;;5.13;1.13;;;;;;;12.99;60.21;101690.41;5072387;28;20033;-82
2022/05/28 01:29:03;;;;;;;13.50;2.15;;;;;;;13.01;59.97;101688.56;5073343;28;20058;-82
2022/05/28 01:31:31;;;;;;;8.32;2.28;;;;;;;13.00;60.08;101684.22;5073495;28;20020;-82
2022/05/28 01:33:59;;;;;;;7.45;1.42;;;;;;;13.01;59.79;101691.19;5073290;28;20474;-82
2022/05/28 01:36:26;;;;;;;6.00;1.55;;;;;;;12.98;59.81;101682.63;5053356;28;20025;-82
2022/05/28 01:38:54;;;;;;;9.88;1.73;;;;;;;12.97;59.81;101684.38;5062539;28;20016;-82
2022/05/28 01:41:22;;;;;;;6.93;1.33;;;;;;;12.87;60.04;101684.09;5073465;28;20025;-82
2022/05/28 01:43:49;;;;;;;9.18;1.83;;;;;;;12.86;60.10;101678.88;5072218;28;20528;-82
2022/05/28 01:46:17;;;;;;;7.68;1.27;;;;;;;12.82;60.29;101675.56;5073615;28;20107;-82
2022/05/28 01:48:45;;;;;;;5.72;1.20;;;;;;;12.83;60.18;101677.25;5073148;28;20067;-82
2022/05/28 01:51:14;;;;;;;7.43;1.40;;;;;;;12.77;60.12;101671.50;5071768;28;20048;-82
2022/05/28 01:56:25;;;;;;;6.40;1.50;;;;;;;12.83;60.36;101671.16;5073538;28;20613;-82
2022/05/28 01:58:52;;;;;;;8.00;2.65;;;;;;;12.77;60.23;101663.59;5073043;28;20112;-82
2022/05/28 02:01:17;;;;;;;8.43;1.73;;;;;;;12.81;60.29;101665.13;5072774;28;20032;-82
2022/05/28 02:03:45;;;;;;;5.85;1.70;;;;;;;12.77;60.52;101669.69;5073279;28;20359;-82
2022/05/28 02:06:11;;;;;;;4.20;1.20;;;;;;;12.83;60.14;101668.50;5073023;28;20086;-82
2022/05/28 02:08:40;;;;;;;7.70;1.60;;;;;;;12.78;60.31;101668.78;5072254;28;20458;-82
2022/05/28 02:11:13;;;;;;;8.90;1.63;;;;;;;12.66;60.60;101661.59;5055465;28;20025;-82
2022/05/28 02:13:57;;;;;;;6.63;1.75;;;;;;;12.77;60.83;101658.31;5073390;28;20090;-82
2022/05/28 02:16:46;;;;;;;7.03;1.63;;;;;;;12.81;61.02;101665.13;5072689;28;20082;-82
2022/05/28 02:19:39;;;;;;;5.43;1.52;;;;;;;12.82;60.11;101662.41;5071099;28;20094;-82
2022/05/28 02:22:19;;;;;;;7.68;1.77;;;;;;;12.77;60.50;101663.59;5072231;28;20421;-82
2022/05/28 02:24:51;;;;;;;7.15;1.77;;;;;;;12.68;60.52;101660.56;5072711;28;20119;-82
2022/05/28 02:27:19;;;;;;;9.88;1.63;;;;;;;12.63;60.69;101667.84;5072749;28;20348;-82
2022/05/28 02:29:45;;;;;;;7.75;1.88;;;;;;;12.66;61.17;101658.94;5072409;28;20033;-82
2022/05/28 02:32:12;;;;;;;8.70;2.20;;;;;;;12.58;61.55;101656.75;5071479;28;20111;-82
2022/05/28 02:34:38;;;;;;;9.27;1.60;;;;;;;12.57;61.05;101657.66;5072122;28;20486;-82
2022/05/28 02:37:03;;;;;;;9.25;1.92;;;;;;;12.58;61.24;101663.78;5071783;28;20077;-82
2022/05/28 02:39:28;;;;;;;12.73;1.90;;;;;;;12.59;60.49;101661.06;5072415;28;20371;-82
2022/05/28 02:41:54;;;;;;;5.45;1.38;;;;;;;12.58;61.38;101669.91;5072391;28;20119;-82
2022/05/28 02:44:19;;;;;;;5.63;1.50;;;;;;;12.64;60.75;101672.19;5071877;28;20020;-82
2022/05/28 02:46:44;;;;;;;8.27;1.95;;;;;;;12.62;61.16;101676.72;5072225;28;20364;-82
2022/05/28 02:49:10;;;;;;;11.18;1.98;;;;;;;12.56;61.38;101669.16;5072353;28;20108;-82
2022/05/28 02:51:37;;;;;;;8.52;1.38;;;;;;;12.62;61.12;101665.34;5071819;28;20419;-82
2022/05/28 02:54:02;;;;;;;6.68;1.67;;;;;;;12.65;61.13;101670.41;5072244;28;20391;-82
2022/05/28 02:56:28;;;;;;;10.30;1.67;;;;;;;12.67;61.02;101666.75;5070867;28;20157;-82
2022/05/28 02:58:53;;;;;;;13.02;1.58;;;;;;;12.61;60.51;101659.19;5069845;28;20020;-82
2022/05/28 03:01:33;;;;;;;8.30;1.70;;;;;;;12.57;60.60;101662.94;5072019;28;20017;-82
2022/05/28 03:03:59;;;;;;;9.65;1.55;;;;;;;12.32;61.33;101658.19;5071974;28;20021;-82
2022/05/28 03:06:24;;;;;;;8.38;2.13;;;;;;;12.42;60.93;101661.16;5070961;28;20483;-82
2022/05/28 03:08:50;;;;;;;6.03;1.50;;;;;;;12.45;61.19;101661.00;5071376;28;20053;-82
2022/05/28 03:11:16;;;;;;;8.27;1.58;;;;;;;12.44;61.04;101662.78;5071606;28;20055;-82
2022/05/28 03:13:41;;;;;;;7.50;2.08;;;;;;;12.34;61.52;101656.31;5071630;28;20417;-82
2022/05/28 03:16:07;;;;;;;7.15;1.70;;;;;;;12.29;61.28;101664.47;5071912;28;20032;-81
2022/05/28 03:18:33;;;;;;;5.97;1.67;;;;;;;12.35;61.51;101659.81;5071914;28;20099;-82
2022/05/28 03:20:58;;;;;;;6.88;1.58;;;;;;;12.36;61.60;101667.63;5070097;28;20170;-82
2022/05/28 03:23:23;;;;;;;6.35;1.73;;;;;;;12.26;62.43;101659.38;5071008;28;20032;-82
2022/05/28 03:25:49;;;;;;;7.55;2.08;;;;;;;12.33;61.90;101662.53;5070611;28;20367;-82
2022/05/28 03:28:14;;;;;;;6.63;1.63;;;;;;;12.27;62.23;101670.75;5071589;28;20385;-82
2022/05/28 03:30:40;;;;;;;8.32;2.75;;;;;;;12.25;62.30;101670.00;5071655;28;20490;-82
2022/05/28 03:33:05;;;;;;;7.75;1.95;;;;;;;11.99;62.41;101666.16;5071692;28;20021;-82
2022/05/28 03:35:30;;;;;;;6.22;1.65;;;;;;;12.00;62.35;101673.09;5070735;28;20074;-82
2022/05/28 03:37:56;;;;;;;10.23;2.08;;;;;;;12.12;61.98;101672.44;5071681;28;20032;-82
2022/05/28 03:40:21;;;;;;;8.95;1.70;;;;;;;12.13;62.92;101668.03;5071693;28;20520;-82
2022/05/28 03:42:47;;;;;;;11.10;3.10;;;;;;;12.17;62.62;101669.56;5071017;28;20031;-82
2022/05/28 03:45:12;;;;;;;6.75;1.90;;;;;;;12.15;62.18;101674.91;5071682;28;20086;-82
2022/05/28 03:47:38;;;;;;;5.82;1.67;;;;;;;12.17;62.85;101669.56;5071576;28;20039;-82
2022/05/28 03:50:04;;;;;;;5.55;1.67;;;;;;;12.20;62.44;101674.66;5073721;28;20094;-82
2022/05/28 03:52:29;;;;;;;7.57;1.60;;;;;;;12.11;62.10;101676.03;5074900;28;20566;-82
2022/05/28 03:54:55;;;;;;;5.35;1.60;;;;;;;12.08;62.49;101669.16;5075609;28;20104;-82
2022/05/28 03:57:24;;;;;;;9.55;1.70;;;;;;;12.06;62.40;101662.25;5075136;28;20042;-82
2022/05/28 03:59:50;;;;;;;7.18;1.83;;;;;;;12.14;62.04;101667.09;5075545;28;20059;-82
2022/05/28 04:02:15;;;;;;;8.30;1.83;;;;;;;12.16;61.68;101663.44;5073516;28;20119;-82
2022/05/28 04:04:41;;;;;;;4.43;1.40;;;;;;;12.20;61.59;101670.22;5073700;28;20028;-82
2022/05/28 04:07:08;;;;;;;8.00;1.73;;;;;;;12.17;61.63;101675.69;5075096;28;20029;-82
2022/05/28 04:09:33;;;;;;;27.58;3.03;;;;;;;12.17;61.39;101673.06;5074852;28;20032;-82
2022/05/28 04:11:59;;;;;;;8.18;2.35;;;;;;;12.19;61.71;101678.25;5075223;28;20094;-82
2022/05/28 04:14:24;;;;;;;11.02;2.13;;;;;;;12.22;61.56;101683.31;5075307;28;20099;-82
2022/05/28 04:16:49;;;;;;;7.72;1.70;;;;;;;12.21;61.97;101674.59;5075263;28;20031;-81
2022/05/28 04:19:15;;;;;;;4.20;1.92;;;;;;;12.29;61.90;101679.44;5074972;28;20372;-81
2022/05/28 04:21:40;;;;;;;7.03;1.65;;;;;;;12.21;61.77;101682.47;5074793;28;20103;-81
2022/05/28 04:24:06;;;;;;;8.13;1.75;;;;;;;12.17;61.48;101665.16;5072915;28;20147;-81
2022/05/28 04:26:31;;;;;;;8.82;1.83;;;;;;;12.11;61.73;101681.28;5074084;28;20035;-81
2022/05/28 04:28:57;;;;;;;7.10;1.48;;;;;;;12.14;61.71;101675.84;5074986;28;20036;-81
2022/05/28 04:31:22;;;;;;;6.00;2.00;;;;;;;12.22;62.23;101678.94;5074498;28;20108;-81
2022/05/28 04:33:48;;;;;;;8.27;2.53;;;;;;;12.30;62.15;101671.44;5074891;28;20028;-81
2022/05/28 04:36:13;;;;;;;7.80;1.80;;;;;;;12.39;61.92;101674.50;5074722;28;20029;-81
2022/05/28 04:38:39;;;;;;;8.02;1.42;;;;;;;12.35;62.60;101672.97;5074766;28;20073;-81
2022/05/28 04:41:04;;;;;;;8.70;1.20;;;;;;;12.25;61.99;101676.09;5074859;28;20059;-81
2022/05/28 04:43:30;;;;;;;8.80;1.52;;;;;;;12.34;62.33;101692.34;5074572;28;20040;-81
2022/05/28 04:45:55;;;;;;;8.10;2.35;;;;;;;12.42;62.33;101683.09;5074190;28;20029;-81
2022/05/28 04:48:20;;;;;;;10.77;1.50;;;;;;;12.49;62.17;101681.81;5074621;28;20103;-81
2022/05/28 04:50:46;;;;;;;6.85;1.55;;;;;;;12.52;62.03;101678.16;5073024;28;20064;-81
2022/05/28 04:53:11;;;;;;;7.13;1.88;;;;;;;12.45;61.88;101682.06;5073567;28;20024;-81
2022/05/28 04:55:37;;;;;;;9.70;1.60;;;;;;;12.56;61.72;101677.06;5074284;28;20033;-81
2022/05/28 04:58:04;;;;;;;4.85;1.60;;;;;;;12.64;61.64;101680.09;5074437;28;20470;-81
2022/05/28 05:00:29;;;;;;;7.13;1.75;;;;;;;12.68;61.77;101675.53;5073594;28;20028;-81
2022/05/28 05:02:54;;;;;;;6.45;2.05;;;;;;;12.78;61.45;101684.59;5074261;28;20033;-82
2022/05/28 05:05:20;;;;;;;10.13;1.77;;;;;;;12.67;61.30;101677.28;5074189;28;20024;-81
2022/05/28 05:07:45;;;;;;;9.90;1.90;;;;;;;12.74;61.36;101687.47;5073652;28;20032;-81
2022/05/28 05:10:11;;;;;;;4.25;1.98;;;;;;;12.69;61.09;101672.78;5074259;28;20032;-81
2022/05/28 05:12:36;;;;;;;3.90;1.50;;;;;;;12.73;61.19;101673.44;5074152;28;20044;-81
2022/05/28 05:15:02;;;;;;;6.15;1.77;;;;;;;12.74;61.90;101674.28;5074212;28;20090;-81
2022/05/28 05:17:28;;;;;;;8.43;2.35;;;;;;;12.76;61.34;101686.47;5073837;28;20504;-81
2022/05/28 05:19:53;;;;;;;6.35;1.52;;;;;;;12.82;61.80;101688.75;5074179;28;20016;-81
2022/05/28 05:22:19;;;;;;;6.80;1.40;;;;;;;12.93;61.47;101677.59;5072997;28;20024;-81
2022/05/28 05:24:45;;;;;;;10.57;1.77;;;;;;;13.09;61.87;101667.00;5074008;28;20033;-81
2022/05/28 05:27:11;;;;;;;8.85;1.80;;;;;;;13.24;61.19;101662.63;5073896;28;20016;-81
2022/05/28 05:29:37;;;;;;;9.38;2.00;;;;;;;13.15;61.79;101668.44;5071654;28;20040;-81
2022/05/28 05:32:03;;;;;;;9.75;1.98;;;;;;;13.20;62.19;101682.22;5053585;28;20041;-81
2022/05/28 05:34:28;;;;;;;7.47;1.83;;;;;;;13.26;61.63;101677.41;5056322;28;20065;-81
2022/05/28 05:36:54;;;;;;;11.65;4.05;;;;;;;13.27;61.86;101678.28;5071530;28;20086;-81
2022/05/28 05:39:19;;;;;;;8.38;2.00;;;;;;;13.46;61.66;101672.78;5072243;28;20107;-81
2022/05/28 05:41:44;;;;;;;13.07;2.28;;;;;;;13.21;61.45;101670.69;5073590;28;20052;-80
2022/05/28 05:44:11;;;;;;;7.18;1.77;;;;;;;13.60;61.06;101675.41;5072340;28;20048;-81
2022/05/28 05:46:41;;;;;;;9.88;1.73;;;;;;;13.64;60.81;101663.72;5073553;28;20020;-81
2022/05/28 05:49:07;;;;;;;12.82;2.55;;;;;;;13.67;60.54;101675.91;5072810;28;20028;-81
2022/05/28 05:51:41;;;;;;;12.55;2.17;;;;;;;13.52;60.93;101679.47;5072702;28;20048;-81
2022/05/28 05:54:07;;;;;;;11.50;3.03;;;;;;;13.88;60.46;101679.00;5067612;28;20033;-81
2022/05/28 05:56:32;;;;;;;13.48;2.22;;;;;;;14.08;60.11;101678.66;5070238;28;20111;-81
2022/05/28 05:58:58;;;;;;;12.32;2.75;;;;;;;14.14;59.77;101684.47;5072917;28;20028;-82
2022/05/28 06:01:24;;;;;;;10.13;2.13;;;;;;;14.33;59.40;101676.25;5072801;28;20028;-81
2022/05/28 06:03:50;;;;;;;6.70;1.95;;;;;;;14.38;59.51;101666.25;5072780;28;20410;-82
2022/05/28 06:06:17;;;;;;;11.40;2.70;;;;;;;14.14;59.02;101672.13;5072039;28;20020;-82
2022/05/28 06:08:43;;;;;;;10.27;1.95;;;;;;;14.28;59.71;101660.69;5071974;28;20119;-85
2022/05/28 06:11:09;;;;;;;8.98;1.77;;;;;;;14.86;58.53;101672.78;5061247;28;20481;-82
2022/05/28 06:13:35;;;;;;;12.40;2.55;;;;;;;14.64;58.49;101668.06;5052405;28;20124;-83
2022/05/28 06:16:00;;;;;;;7.97;1.52;;;;;;;15.94;55.40;101669.97;5065439;28;20113;-85
2022/05/28 06:18:26;;;;;;;9.85;2.55;;;;;;;16.88;52.48;101671.16;5072297;28;20294;-84
2022/05/28 06:20:53;;;;;;;15.05;2.38;;;;;;;19.38;46.87;101669.88;5072524;28;20043;-85
2022/05/28 06:23:18;;;;;;;4.88;1.45;;;;;;;22.72;39.49;101654.31;5071358;28;20033;-83
2022/05/28 06:25:44;;;;;;;10.70;2.30;;;;;;;25.46;34.13;101652.34;5057564;28;20446;-83
2022/05/28 06:28:10;;;;;;;9.18;1.83;;;;;;;27.61;31.35;101646.16;5066925;28;20024;-84
2022/05/28 06:30:35;;;;;;;10.48;2.10;;;;;;;28.58;29.64;101663.13;5067143;28;20357;-86
2022/05/28 06:33:01;;;;;;;6.13;1.73;;;;;;;29.60;28.14;101662.69;5067021;28;20094;-88
2022/05/28 06:35:29;;;;;;;6.30;1.85;;;;;;;30.81;26.75;101634.94;5055476;28;20033;-87
2022/05/28 06:37:54;;;;;;;7.18;2.05;;;;;;;30.80;26.19;101635.13;5056664;28;20025;-85
2022/05/28 06:40:20;;;;;;;10.90;1.90;;;;;;;29.60;27.56;101659.13;5065520;28;20047;-86
2022/05/28 06:42:46;;;;;;;8.20;1.50;;;;;;;29.83;26.34;101635.34;5062257;28;20677;-83
2022/05/28 06:45:14;;;;;;;7.32;1.40;;;;;;;31.66;24.22;101608.94;5066189;28;20055;-84
2022/05/28 06:47:44;;;;;;;5.82;1.63;;;;;;;32.40;24.16;101645.53;5066435;28;20033;-84
2022/05/28 06:52:55;;;;;;;6.53;1.67;;;;;;;34.27;21.86;101567.31;5067397;28;20051;-85
2022/05/28 06:55:20;;;;;;;6.45;1.83;;;;;;;34.76;21.69;101554.34;5056603;28;20569;-84
2022/05/28 06:57:45;;;;;;;7.22;1.90;;;;;;;31.63;24.46;101583.03;5065416;28;20479;-88
2022/05/28 07:00:11;;;;;;;7.30;1.50;;;;;;;33.60;22.92;101639.03;5064744;28;20482;-85
2022/05/28 07:02:36;;;;;;;7.18;1.60;;;;;;;32.41;23.54;101626.28;5066786;28;20290;-85
2022/05/28 07:05:03;;;;;;;11.45;1.95;;;;;;;31.82;24.31;101622.03;5062965;28;20028;-84
2022/05/28 07:07:29;;;;;;;5.68;1.52;;;;;;;34.47;21.00;101524.19;5057489;28;20037;-84
2022/05/28 07:09:55;;;;;;;7.28;1.52;;;;;;;30.59;25.10;101644.28;5056026;28;20048;-84
2022/05/28 07:12:21;;;;;;;6.05;1.33;;;;;;;30.41;25.50;101531.09;5062236;28;20028;-84
2022/05/28 07:14:48;;;;;;;7.13;1.30;;;;;;;33.72;22.56;101530.19;5064774;28;20040;-84
2022/05/28 07:17:14;;;;;;;6.60;2.00;;;;;;;31.12;25.52;101638.88;5066622;28;20028;-83
2022/05/28 07:19:41;;;;;;;7.90;1.48;;;;;;;33.03;23.20;101643.81;5066694;28;20029;-84
2022/05/28 07:22:07;;;;;;;5.50;1.58;;;;;;;35.37;21.43;101563.06;5066457;28;20564;-84
2022/05/28 07:24:33;;;;;;;7.93;2.08;;;;;;;35.94;21.08;101494.75;5060306;28;20650;-83
2022/05/28 07:26:58;;;;;;;5.07;1.45;;;;;;;34.49;21.81;101511.16;5053239;28;20052;-83
2022/05/28 07:29:23;;;;;;;8.05;1.50;;;;;;;35.10;20.81;101521.78;5068215;28;20064;-84
2022/05/28 07:31:49;;;;;;;6.15;1.13;;;;;;;33.41;21.81;101589.19;5071554;28;20036;-83
2022/05/28 07:34:14;;;;;;;8.15;1.50;;;;;;;31.62;23.84;101646.53;5067103;28;20100;-84
2022/05/28 07:36:39;;;;;;;5.57;1.25;;;;;;;31.84;23.81;101638.94;5051550;28;20052;-84
2022/05/28 07:39:05;;;;;;;5.15;1.30;;;;;;;32.73;22.51;101565.63;5050689;28;20463;-84
2022/05/28 07:41:31;;;;;;;7.97;1.60;;;;;;;33.77;22.01;101580.19;5051387;28;20032;-84
2022/05/28 07:43:57;;;;;;;6.57;1.17;;;;;;;34.27;21.95;101600.84;5065820;28;20031;-84
2022/05/28 07:46:32;;;;;;;5.15;1.30;;;;;;;35.97;21.59;101646.47;5051245;28;20028;-84
2022/05/28 07:49:00;;;;;;;9.85;2.22;;;;;;;34.98;21.19;101638.34;5051664;28;20025;-88
2022/05/28 07:51:26;;;;;;;6.65;1.52;;;;;;;35.39;20.23;101626.44;5051521;28;20032;-88
2022/05/28 07:53:51;;;;;;;7.80;1.30;;;;;;;34.34;22.26;101581.66;5050640;28;20025;-88
2022/05/28 07:56:17;;;;;;;5.53;1.65;;;;;;;32.85;22.96;101603.81;5051538;28;20345;-88
2022/05/28 07:58:43;;;;;;;6.85;1.30;;;;;;;31.73;23.93;101634.16;5067861;28;20071;-88
2022/05/28 08:01:18;;;;;;;2.35;0.95;;;;;;;32.95;22.89;101631.31;5071168;28;20371;-88
2022/05/28 08:03:43;;;;;;;3.95;1.15;;;;;;;33.89;21.75;101637.44;5070923;28;20039;-88
2022/05/28 08:06:09;;;;;;;4.47;1.17;;;;;;;34.53;21.83;101631.50;5051381;28;20025;-87
2022/05/28 08:08:35;;;;;;;3.78;1.10;;;;;;;34.90;21.35;101631.31;5057492;28;20034;-86
2022/05/28 08:11:00;;;;;;;5.97;1.30;;;;;;;35.12;20.68;101635.09;5069367;28;20044;-85
2022/05/28 08:13:25;;;;;;;7.53;1.63;;;;;;;34.80;21.03;101631.06;5069647;28;20052;-86
2022/05/28 08:15:55;;;;;;;4.53;1.20;;;;;;;35.85;19.82;101635.59;5069811;28;20028;-86
2022/05/28 08:18:23;;;;;;;8.07;1.40;;;;;;;34.47;21.01;101627.81;5073864;28;20028;-89
2022/05/28 08:23:41;;;;;;;6.15;1.40;;;;;;;33.71;22.94;101612.94;5059777;28;20086;-93
2022/05/28 08:26:07;;;;;;;4.80;1.58;;;;;;;33.26;23.87;101615.97;5062580;28;20522;-88
2022/05/28 08:28:35;;;;;;;4.78;1.48;;;;;;;32.35;24.38;101620.91;5071472;28;20037;-88
2022/05/28 08:31:00;;;;;;;6.15;1.90;;;;;;;31.09;25.26;101633.06;5070263;28;20109;-88
2022/05/28 08:33:26;;;;;;;6.97;1.80;;;;;;;29.22;27.21;101627.91;5069056;28;20111;-89
2022/05/28 08:35:52;;;;;;;7.25;1.35;;;;;;;28.61;28.09;101624.91;5062523;28;20031;-88
2022/05/28 08:38:20;;;;;;;3.72;1.33;;;;;;;27.15;29.94;101630.09;5074293;28;20068;-86
2022/05/28 08:41:20;;;;;;;7.32;1.55;;;;;;;27.18;30.03;101632.44;5073170;28;20034;-87
2022/05/28 08:43:51;;;;;;;6.78;1.40;;;;;;;25.21;32.77;101641.59;5062666;28;20047;-88
2022/05/28 08:46:18;;;;;;;4.07;1.33;;;;;;;25.48;32.97;101639.56;5074110;28;20037;-86
2022/05/28 08:48:50;;;;;;;5.72;1.10;;;;;;;27.70;31.90;101631.53;5074415;28;20035;-87
2022/05/28 08:51:32;;;;;;;3.17;0.98;;;;;;;28.40;29.30;101623.03;5074302;28;20028;-86
2022/05/28 08:54:04;;;;;;;6.07;1.80;;;;;;;26.06;31.85;101618.66;5074119;28;20044;-87
2022/05/28 08:56:31;;;;;;;3.67;1.10;;;;;;;24.65;33.96;101624.50;5073640;28;20130;-87
2022/05/28 08:59:03;;;;;;;6.13;1.40;;;;;;;27.49;30.65;101620.69;5073858;28;20566;-88
2022/05/28 09:01:31;;;;;;;7.47;1.63;;;;;;;26.25;31.92;101631.66;5073903;28;20047;-88
2022/05/28 09:04:01;;;;;;;7.28;1.20;;;;;;;25.80;32.43;101616.22;5073420;28;20029;-84
2022/05/28 09:06:55;;;;;;;4.60;1.38;;;;;;;26.55;32.36;101609.41;5067120;28;20044;-86
2022/05/28 09:09:36;;;;;;;5.40;1.50;;;;;;;29.93;27.76;101605.16;5074144;28;20039;-86
2022/05/28 09:12:04;;;;;;;5.50;1.77;;;;;;;31.28;27.29;101606.94;5074028;28;20165;-86
2022/05/28 09:14:32;;;;;;;6.13;1.50;;;;;;;29.54;27.67;101609.34;5071007;28;20040;-86
2022/05/28 09:17:11;;;;;;;4.72;1.40;;;;;;;31.03;26.73;101602.19;5070715;28;20032;-86
2022/05/28 09:19:41;;;;;;;5.55;1.00;;;;;;;31.80;26.10;101605.13;5072614;28;20021;-86
2022/05/28 09:22:06;;;;;;;5.35;1.40;;;;;;;32.82;24.33;101609.69;5073197;28;20024;-86
2022/05/28 09:24:33;;;;;;;5.38;1.13;;;;;;;32.53;23.96;101603.84;5076157;28;20115;-86
2022/05/28 09:27:18;;;;;;;4.10;1.10;;;;;;;34.44;21.04;101600.16;5075882;28;20039;-87
2022/05/28 09:29:55;;;;;;;4.10;0.98;;;;;;;34.25;21.76;101602.16;5076892;28;20021;-86
2022/05/28 09:33:02;;;;;;;5.85;1.17;;;;;;;33.69;22.34;101596.00;5075047;28;20021;-88
2022/05/28 09:36:05;;;;;;;6.47;1.45;;;;;;;32.27;24.36;101600.28;5073174;28;20044;-87
2022/05/28 09:38:37;;;;;;;8.20;1.33;;;;;;;33.04;23.45;101591.91;5069815;28;20028;-88
2022/05/28 09:41:08;;;;;;;4.35;1.38;;;;;;;34.02;22.82;101584.63;5072115;28;20028;-88
2022/05/28 09:43:55;;;;;;;2.05;0.75;;;;;;;33.60;24.82;101587.28;5068315;28;20044;-89
2022/05/28 09:46:24;;;;;;;2.97;0.82;;;;;;;33.35;23.18;101590.94;5051894;28;20356;-88
2022/05/28 09:49:19;;;;;;;8.02;1.20;;;;;;;32.09;23.51;101581.16;5051326;28;20021;-88
2022/05/28 09:51:50;;;;;;;4.88;0.90;;;;;;;32.56;23.71;101593.38;5052390;28;20475;-88
2022/05/28 09:54:23;;;;;;;3.92;0.60;;;;;;;32.96;22.19;101590.28;5062723;28;20021;-90
2022/05/28 09:57:01;;;;;;;2.83;0.75;;;;;;;33.44;21.83;101594.19;5075341;28;20039;-90
2022/05/28 09:59:37;;;;;;;3.63;0.80;;;;;;;32.23;24.94;101593.63;5063689;28;20031;-88
2022/05/28 10:02:14;;;;;;;3.28;1.05;;;;;;;33.65;23.05;101590.19;5074720;28;20028;-88
2022/05/28 10:05:02;;;;;;;6.72;0.85;;;;;;;31.20;25.03;101592.56;5075213;28;20086;-88
2022/05/28 10:07:32;;;;;;;8.13;1.50;;;;;;;30.89;25.27;101581.56;5074684;28;20024;-89
2022/05/28 10:09:58;;;;;;;1.58;0.40;;;;;;;32.18;23.57;101588.00;5069291;28;20035;-88
2022/05/28 10:12:29;;;;;;;4.10;0.63;;;;;;;32.24;23.40;101573.53;5074494;28;20028;-88
2022/05/28 10:15:23;;;;;;;5.93;1.35;;;;;;;33.77;23.58;101576.63;5075131;28;20025;-88
2022/05/28 10:17:58;;;;;;;5.13;0.70;;;;;;;34.91;23.14;101571.03;5072195;28;20055;-91
2022/05/28 10:20:24;;;;;;;3.72;0.80;;;;;;;34.17;21.72;101573.34;5072038;28;20024;-90
2022/05/28 10:22:52;;;;;;;4.05;0.80;;;;;;;33.85;21.28;101562.69;5073392;28;20028;-90
2022/05/28 10:25:31;;;;;;;3.58;0.77;;;;;;;34.53;23.17;101563.31;5073938;28;20025;-89
2022/05/28 10:27:57;;;;;;;3.25;0.80;;;;;;;32.73;23.92;101563.72;5074607;28;20107;-91
2022/05/28 10:30:35;;;;;;;1.77;0.50;;;;;;;33.18;22.31;101560.78;5072548;28;20070;-90
2022/05/28 10:33:06;;;;;;;6.00;0.98;;;;;;;34.32;20.76;101548.34;5070200;28;20025;-91
2022/05/28 10:35:31;;;;;;;2.70;0.63;;;;;;;34.54;21.99;101567.72;5074410;28;20099;-94
2022/05/28 10:38:07;;;;;;;1.98;0.70;;;;;;;34.12;21.99;101570.44;5064239;28;20453;-93
2022/05/28 10:40:32;;;;;;;5.10;0.85;;;;;;;33.78;22.75;101557.31;5055902;28;20013;-93
2022/05/28 10:43:05;;;;;;;3.17;1.08;;;;;;;33.95;21.97;101565.69;5054112;28;20029;-93
2022/05/28 10:45:45;;;;;;;4.70;1.10;;;;;;;34.40;21.01;101560.81;5053924;28;20025;-92
2022/05/28 10:48:24;;;;;;;6.82;0.70;;;;;;;33.85;21.90;101559.09;5057340;28;20086;-92
2022/05/28 10:51:04;;;;;;;3.58;0.68;;;;;;;33.28;22.10;101562.97;5069602;28;20470;-92
2022/05/28 10:53:49;;;;;;;4.57;0.93;;;;;;;30.73;25.78;101564.66;5068346;28;20036;-93
2022/05/28 10:56:43;;;;;;;5.53;0.85;;;;;;;29.96;25.88;101568.75;5058402;28;20029;-88
2022/05/28 10:59:17;;;;;;;6.03;1.00;;;;;;;32.37;23.64;101557.13;5051608;28;20182;-86
2022/05/28 11:01:53;;;;;;;3.63;0.85;;;;;;;32.82;22.71;101563.44;5064923;28;20029;-88
2022/05/28 11:04:37;;;;;;;2.75;0.75;;;;;;;33.12;21.93;101550.81;5064243;28;20025;-86
2022/05/28 11:07:43;;;;;;;3.33;0.85;;;;;;;32.54;22.92;101549.22;5052938;28;20100;-87
2022/05/28 11:10:18;;;;;;;3.13;0.73;;;;;;;31.82;24.16;101537.84;5032029;28;20425;-89
2022/05/28 11:13:09;;;;;;;4.32;1.02;;;;;;;30.73;25.20;101548.41;5065539;28;20024;-88
2022/05/28 11:15:51;;;;;;;;;;;;;;;31.20;25.45;101542.88;5063754;28;20024;-89
2022/05/28 11:18:38;;;;;;;4.75;1.13;;;;;;;32.70;22.30;101533.44;5067148;28;20065;-89
2022/05/28 11:21:15;;;;;;;5.82;1.00;;;;;;;32.13;24.50;101537.03;5069473;28;20466;-88
2022/05/28 11:23:46;;;;;;;3.75;0.70;;;;;;;32.23;24.97;101531.13;5069243;28;20020;-87
2022/05/28 11:26:23;;;;;;;;;;;;;;;33.13;23.73;101530.69;5068226;28;20028;-89
2022/05/28 11:29:14;;;;;;;4.45;0.85;;;;;;;32.64;24.34;101521.56;5067911;28;19913;-86
2022/05/28 11:31:55;;;;;;;;;;;;;;;32.32;24.74;101521.59;5064150;28;20052;-88
2022/05/28 11:34:27;;;;;;;5.25;1.10;;;;;;;33.39;22.99;101506.91;5066018;28;19936;-88
2022/05/28 11:37:12;;;;;;;3.75;1.05;;;;;;;31.62;24.45;101517.06;5066351;28;20116;-88
2022/05/28 11:39:47;;;;;;;8.98;1.55;;;;;;;31.46;24.57;101514.84;5069389;28;20033;-88
2022/05/28 11:42:29;;;;;;;10.25;1.58;;;;;;;31.74;25.67;101506.34;5065617;28;20473;-87
2022/05/28 11:44:56;;;;;;;6.53;1.60;;;;;;;30.81;25.00;101510.22;5068564;28;20054;-88